sensor_id;sensor_type;location;lat;lon;timestamp;P1;durP1;ratioP1;P2;durP2;ratioP2
71127;SDS011;59249;59.736;30.568;2022-08-02T00:01:03;12.33;;;8.13;;
71127;SDS011;59249;59.736;30.568;2022-08-02T00:03:33;9.73;;;6.72;;
71127;SDS011;59249;59.736;30.568;2022-08-02T00:06:01;11.77;;;7.78;;
71127;SDS011;59249;59.736;30.568;2022-08-02T00:08:30;12.52;;;7.90;;
71127;SDS011;59249;59.736;30.568;2022-08-02T00:10:59;14.77;;;8.68;;
71127;SDS011;59249;59.736;30.568;2022-08-02T00:13:28;13.33;;;8.67;;
71127;SDS011;59249;59.736;30.568;2022-08-02T00:15:59;14.27;;;8.70;;
71127;SDS011;59249;59.736;30.568;2022-08-02T00:18:27;12.70;;;8.10;;
71127;SDS011;59249;59.736;30.568;2022-08-02T00:20:57;13.98;;;8.25;;
71127;SDS011;59249;59.736;30.568;2022-08-02T00:23:25;11.57;;;7.45;;
71127;SDS011;59249;59.736;30.568;2022-08-02T00:25:54;11.80;;;8.20;;
71127;SDS011;59249;59.736;30.568;2022-08-02T00:28:23;13.75;;;9.07;;
71127;SDS011;59249;59.736;30.568;2022-08-02T00:30:55;12.57;;;8.20;;
71127;SDS011;59249;59.736;30.568;2022-08-02T00:33:26;13.07;;;7.95;;
71127;SDS011;59249;59.736;30.568;2022-08-02T00:36:15;10.63;;;6.85;;
71127;SDS011;59249;59.736;30.568;2022-08-02T00:38:44;12.60;;;8.13;;
71127;SDS011;59249;59.736;30.568;2022-08-02T00:41:14;14.43;;;8.80;;
71127;SDS011;59249;59.736;30.568;2022-08-02T00:43:47;11.63;;;7.93;;
71127;SDS011;59249;59.736;30.568;2022-08-02T00:46:18;14.00;;;8.75;;
71127;SDS011;59249;59.736;30.568;2022-08-02T00:48:49;13.63;;;8.15;;
71127;SDS011;59249;59.736;30.568;2022-08-02T00:51:19;12.07;;;7.83;;
71127;SDS011;59249;59.736;30.568;2022-08-02T00:53:47;12.73;;;8.77;;
71127;SDS011;59249;59.736;30.568;2022-08-02T00:56:16;11.52;;;9.02;;
71127;SDS011;59249;59.736;30.568;2022-08-02T00:58:45;12.13;;;9.05;;
71127;SDS011;59249;59.736;30.568;2022-08-02T01:01:14;11.75;;;8.13;;
71127;SDS011;59249;59.736;30.568;2022-08-02T01:03:43;12.07;;;8.10;;
71127;SDS011;59249;59.736;30.568;2022-08-02T01:06:16;14.20;;;8.77;;
71127;SDS011;59249;59.736;30.568;2022-08-02T01:08:48;13.85;;;8.75;;
71127;SDS011;59249;59.736;30.568;2022-08-02T01:11:20;14.90;;;8.75;;
71127;SDS011;59249;59.736;30.568;2022-08-02T01:13:49;12.57;;;7.97;;
71127;SDS011;59249;59.736;30.568;2022-08-02T01:16:19;11.93;;;8.43;;
71127;SDS011;59249;59.736;30.568;2022-08-02T01:18:53;13.25;;;8.68;;
71127;SDS011;59249;59.736;30.568;2022-08-02T01:21:45;11.93;;;8.02;;
71127;SDS011;59249;59.736;30.568;2022-08-02T01:24:40;12.57;;;8.35;;
71127;SDS011;59249;59.736;30.568;2022-08-02T01:27:32;13.95;;;9.07;;
71127;SDS011;59249;59.736;30.568;2022-08-02T01:30:19;13.40;;;8.27;;
71127;SDS011;59249;59.736;30.568;2022-08-02T01:32:50;12.98;;;8.13;;
71127;SDS011;59249;59.736;30.568;2022-08-02T01:35:26;13.05;;;7.70;;
71127;SDS011;59249;59.736;30.568;2022-08-02T01:38:18;11.57;;;8.43;;
71127;SDS011;59249;59.736;30.568;2022-08-02T01:40:54;11.30;;;7.63;;
71127;SDS011;59249;59.736;30.568;2022-08-02T01:43:26;9.67;;;6.93;;
71127;SDS011;59249;59.736;30.568;2022-08-02T01:45:59;11.65;;;7.60;;
71127;SDS011;59249;59.736;30.568;2022-08-02T01:48:30;10.95;;;6.85;;
71127;SDS011;59249;59.736;30.568;2022-08-02T01:51:02;10.05;;;6.60;;
71127;SDS011;59249;59.736;30.568;2022-08-02T01:53:33;10.68;;;6.68;;
71127;SDS011;59249;59.736;30.568;2022-08-02T01:56:06;9.20;;;6.10;;
71127;SDS011;59249;59.736;30.568;2022-08-02T01:58:38;8.80;;;6.20;;
71127;SDS011;59249;59.736;30.568;2022-08-02T02:01:10;7.43;;;5.15;;
71127;SDS011;59249;59.736;30.568;2022-08-02T02:03:44;9.77;;;5.97;;
71127;SDS011;59249;59.736;30.568;2022-08-02T02:06:15;9.60;;;6.30;;
71127;SDS011;59249;59.736;30.568;2022-08-02T02:08:46;10.30;;;5.90;;
71127;SDS011;59249;59.736;30.568;2022-08-02T02:11:19;9.02;;;5.90;;
71127;SDS011;59249;59.736;30.568;2022-08-02T02:14:08;8.80;;;6.40;;
71127;SDS011;59249;59.736;30.568;2022-08-02T02:16:43;9.02;;;5.68;;
71127;SDS011;59249;59.736;30.568;2022-08-02T02:19:17;8.10;;;5.20;;
71127;SDS011;59249;59.736;30.568;2022-08-02T02:21:48;7.97;;;5.17;;
71127;SDS011;59249;59.736;30.568;2022-08-02T02:24:17;10.88;;;5.47;;
71127;SDS011;59249;59.736;30.568;2022-08-02T02:26:48;7.28;;;4.60;;
71127;SDS011;59249;59.736;30.568;2022-08-02T02:29:19;7.45;;;4.60;;
71127;SDS011;59249;59.736;30.568;2022-08-02T02:31:53;8.55;;;4.55;;
71127;SDS011;59249;59.736;30.568;2022-08-02T02:34:25;7.13;;;4.40;;
71127;SDS011;59249;59.736;30.568;2022-08-02T02:37:00;6.25;;;3.97;;
71127;SDS011;59249;59.736;30.568;2022-08-02T02:39:31;7.40;;;3.95;;
71127;SDS011;59249;59.736;30.568;2022-08-02T02:42:03;7.00;;;4.20;;
71127;SDS011;59249;59.736;30.568;2022-08-02T02:44:38;8.45;;;4.50;;
71127;SDS011;59249;59.736;30.568;2022-08-02T02:47:10;19.47;;;14.57;;
71127;SDS011;59249;59.736;30.568;2022-08-02T02:49:43;12.02;;;7.93;;
71127;SDS011;59249;59.736;30.568;2022-08-02T02:52:14;16.70;;;11.00;;
71127;SDS011;59249;59.736;30.568;2022-08-02T02:54:47;18.75;;;13.25;;
71127;SDS011;59249;59.736;30.568;2022-08-02T02:57:18;20.08;;;15.00;;
71127;SDS011;59249;59.736;30.568;2022-08-02T02:59:48;11.97;;;7.40;;
71127;SDS011;59249;59.736;30.568;2022-08-02T03:02:21;6.40;;;3.83;;
71127;SDS011;59249;59.736;30.568;2022-08-02T03:04:50;8.48;;;5.13;;
71127;SDS011;59249;59.736;30.568;2022-08-02T03:07:31;7.38;;;4.80;;
71127;SDS011;59249;59.736;30.568;2022-08-02T03:10:01;7.05;;;4.03;;
71127;SDS011;59249;59.736;30.568;2022-08-02T03:12:32;8.87;;;5.70;;
71127;SDS011;59249;59.736;30.568;2022-08-02T03:15:03;9.15;;;6.30;;
71127;SDS011;59249;59.736;30.568;2022-08-02T03:17:42;6.90;;;4.47;;
71127;SDS011;59249;59.736;30.568;2022-08-02T03:20:15;8.18;;;4.28;;
71127;SDS011;59249;59.736;30.568;2022-08-02T03:22:48;26.75;;;19.73;;
71127;SDS011;59249;59.736;30.568;2022-08-02T03:25:17;8.63;;;4.67;;
71127;SDS011;59249;59.736;30.568;2022-08-02T03:27:46;6.07;;;3.35;;
71127;SDS011;59249;59.736;30.568;2022-08-02T03:30:18;12.38;;;8.25;;
71127;SDS011;59249;59.736;30.568;2022-08-02T03:32:51;17.20;;;12.40;;
71127;SDS011;59249;59.736;30.568;2022-08-02T03:35:20;14.30;;;8.50;;
71127;SDS011;59249;59.736;30.568;2022-08-02T03:37:51;7.73;;;4.10;;
71127;SDS011;59249;59.736;30.568;2022-08-02T03:40:22;8.25;;;5.82;;
71127;SDS011;59249;59.736;30.568;2022-08-02T03:42:54;12.32;;;7.55;;
71127;SDS011;59249;59.736;30.568;2022-08-02T03:45:24;13.18;;;7.03;;
71127;SDS011;59249;59.736;30.568;2022-08-02T03:47:55;15.10;;;11.10;;
71127;SDS011;59249;59.736;30.568;2022-08-02T03:50:25;20.77;;;13.83;;
71127;SDS011;59249;59.736;30.568;2022-08-02T03:52:54;30.92;;;22.33;;
71127;SDS011;59249;59.736;30.568;2022-08-02T03:55:24;38.53;;;26.42;;
71127;SDS011;59249;59.736;30.568;2022-08-02T03:57:53;13.20;;;8.27;;
71127;SDS011;59249;59.736;30.568;2022-08-02T04:00:25;6.50;;;2.75;;
71127;SDS011;59249;59.736;30.568;2022-08-02T04:02:57;6.10;;;3.10;;
71127;SDS011;59249;59.736;30.568;2022-08-02T04:05:25;5.07;;;2.92;;
71127;SDS011;59249;59.736;30.568;2022-08-02T04:07:54;5.22;;;2.55;;
71127;SDS011;59249;59.736;30.568;2022-08-02T04:10:43;5.15;;;2.70;;
71127;SDS011;59249;59.736;30.568;2022-08-02T04:13:31;5.63;;;2.90;;
71127;SDS011;59249;59.736;30.568;2022-08-02T04:16:03;5.80;;;3.03;;
71127;SDS011;59249;59.736;30.568;2022-08-02T04:18:42;8.18;;;2.85;;
71127;SDS011;59249;59.736;30.568;2022-08-02T04:21:18;5.10;;;2.90;;
71127;SDS011;59249;59.736;30.568;2022-08-02T04:23:50;5.65;;;3.08;;
71127;SDS011;59249;59.736;30.568;2022-08-02T04:26:22;6.32;;;3.33;;
71127;SDS011;59249;59.736;30.568;2022-08-02T04:28:54;7.03;;;3.23;;
71127;SDS011;59249;59.736;30.568;2022-08-02T04:31:29;7.03;;;3.03;;
71127;SDS011;59249;59.736;30.568;2022-08-02T04:34:00;6.13;;;3.17;;
71127;SDS011;59249;59.736;30.568;2022-08-02T04:36:29;5.90;;;2.80;;
71127;SDS011;59249;59.736;30.568;2022-08-02T04:38:58;6.65;;;3.00;;
71127;SDS011;59249;59.736;30.568;2022-08-02T04:41:37;5.17;;;2.80;;
71127;SDS011;59249;59.736;30.568;2022-08-02T04:44:10;5.75;;;2.60;;
71127;SDS011;59249;59.736;30.568;2022-08-02T04:46:39;4.65;;;2.05;;
71127;SDS011;59249;59.736;30.568;2022-08-02T04:49:11;4.30;;;2.10;;
71127;SDS011;59249;59.736;30.568;2022-08-02T04:51:41;3.83;;;1.50;;
71127;SDS011;59249;59.736;30.568;2022-08-02T04:54:10;3.37;;;1.60;;
71127;SDS011;59249;59.736;30.568;2022-08-02T04:56:40;3.72;;;1.60;;
71127;SDS011;59249;59.736;30.568;2022-08-02T04:59:09;3.42;;;1.30;;
71127;SDS011;59249;59.736;30.568;2022-08-02T05:01:38;3.13;;;1.60;;
71127;SDS011;59249;59.736;30.568;2022-08-02T05:04:08;2.70;;;1.50;;
71127;SDS011;59249;59.736;30.568;2022-08-02T05:06:38;3.23;;;1.20;;
71127;SDS011;59249;59.736;30.568;2022-08-02T05:09:10;3.85;;;1.60;;
71127;SDS011;59249;59.736;30.568;2022-08-02T05:11:38;5.80;;;2.28;;
71127;SDS011;59249;59.736;30.568;2022-08-02T05:14:07;3.60;;;1.52;;
71127;SDS011;59249;59.736;30.568;2022-08-02T05:16:36;4.53;;;1.55;;
71127;SDS011;59249;59.736;30.568;2022-08-02T05:19:05;4.37;;;2.03;;
71127;SDS011;59249;59.736;30.568;2022-08-02T05:21:33;6.25;;;2.53;;
71127;SDS011;59249;59.736;30.568;2022-08-02T05:24:04;6.82;;;3.15;;
71127;SDS011;59249;59.736;30.568;2022-08-02T05:26:34;7.78;;;3.92;;
71127;SDS011;59249;59.736;30.568;2022-08-02T05:29:03;7.55;;;3.75;;
71127;SDS011;59249;59.736;30.568;2022-08-02T05:31:32;6.80;;;3.37;;
71127;SDS011;59249;59.736;30.568;2022-08-02T05:34:00;7.68;;;3.80;;
71127;SDS011;59249;59.736;30.568;2022-08-02T05:36:35;7.88;;;3.83;;
71127;SDS011;59249;59.736;30.568;2022-08-02T05:39:09;9.15;;;4.25;;
71127;SDS011;59249;59.736;30.568;2022-08-02T05:41:44;9.52;;;4.45;;
71127;SDS011;59249;59.736;30.568;2022-08-02T05:44:13;8.97;;;4.33;;
71127;SDS011;59249;59.736;30.568;2022-08-02T05:46:42;10.07;;;5.13;;
71127;SDS011;59249;59.736;30.568;2022-08-02T05:49:13;8.05;;;5.05;;
71127;SDS011;59249;59.736;30.568;2022-08-02T05:51:51;7.88;;;4.30;;
71127;SDS011;59249;59.736;30.568;2022-08-02T05:54:34;6.90;;;3.67;;
71127;SDS011;59249;59.736;30.568;2022-08-02T05:57:15;6.17;;;3.07;;
71127;SDS011;59249;59.736;30.568;2022-08-02T05:59:58;6.72;;;3.63;;
71127;SDS011;59249;59.736;30.568;2022-08-02T06:02:42;7.93;;;3.83;;
71127;SDS011;59249;59.736;30.568;2022-08-02T06:05:28;6.70;;;3.58;;
71127;SDS011;59249;59.736;30.568;2022-08-02T06:08:07;7.55;;;3.33;;
71127;SDS011;59249;59.736;30.568;2022-08-02T06:10:38;8.27;;;3.07;;
71127;SDS011;59249;59.736;30.568;2022-08-02T06:13:11;6.15;;;2.70;;
71127;SDS011;59249;59.736;30.568;2022-08-02T06:15:42;6.00;;;2.65;;
71127;SDS011;59249;59.736;30.568;2022-08-02T06:18:19;5.28;;;2.35;;
71127;SDS011;59249;59.736;30.568;2022-08-02T06:20:54;5.13;;;1.90;;
71127;SDS011;59249;59.736;30.568;2022-08-02T06:23:45;4.40;;;1.70;;
71127;SDS011;59249;59.736;30.568;2022-08-02T06:26:26;8.55;;;2.05;;
71127;SDS011;59249;59.736;30.568;2022-08-02T06:28:56;4.68;;;1.90;;
71127;SDS011;59249;59.736;30.568;2022-08-02T06:31:25;4.25;;;1.70;;
71127;SDS011;59249;59.736;30.568;2022-08-02T06:33:54;3.80;;;2.00;;
71127;SDS011;59249;59.736;30.568;2022-08-02T06:36:26;4.20;;;2.13;;
71127;SDS011;59249;59.736;30.568;2022-08-02T06:39:04;4.28;;;2.03;;
71127;SDS011;59249;59.736;30.568;2022-08-02T06:41:43;4.55;;;1.70;;
71127;SDS011;59249;59.736;30.568;2022-08-02T06:44:22;4.32;;;1.60;;
71127;SDS011;59249;59.736;30.568;2022-08-02T06:47:12;4.35;;;1.80;;
71127;SDS011;59249;59.736;30.568;2022-08-02T06:49:41;4.67;;;2.13;;
71127;SDS011;59249;59.736;30.568;2022-08-02T06:52:22;5.88;;;2.10;;
71127;SDS011;59249;59.736;30.568;2022-08-02T06:54:59;4.85;;;2.28;;
71127;SDS011;59249;59.736;30.568;2022-08-02T06:57:32;5.63;;;2.80;;
71127;SDS011;59249;59.736;30.568;2022-08-02T07:00:02;4.53;;;2.30;;
71127;SDS011;59249;59.736;30.568;2022-08-02T07:02:35;4.40;;;2.40;;
71127;SDS011;59249;59.736;30.568;2022-08-02T07:05:05;4.65;;;2.45;;
71127;SDS011;59249;59.736;30.568;2022-08-02T07:07:36;6.10;;;2.45;;
71127;SDS011;59249;59.736;30.568;2022-08-02T07:10:09;4.93;;;2.70;;
71127;SDS011;59249;59.736;30.568;2022-08-02T07:12:41;6.40;;;3.60;;
71127;SDS011;59249;59.736;30.568;2022-08-02T07:15:10;6.10;;;3.23;;
71127;SDS011;59249;59.736;30.568;2022-08-02T07:17:39;7.07;;;3.90;;
71127;SDS011;59249;59.736;30.568;2022-08-02T07:20:08;6.60;;;4.07;;
71127;SDS011;59249;59.736;30.568;2022-08-02T07:22:39;7.00;;;3.80;;
71127;SDS011;59249;59.736;30.568;2022-08-02T07:25:08;7.32;;;3.75;;
71127;SDS011;59249;59.736;30.568;2022-08-02T07:27:37;7.53;;;4.37;;
71127;SDS011;59249;59.736;30.568;2022-08-02T07:30:08;7.60;;;3.58;;
71127;SDS011;59249;59.736;30.568;2022-08-02T07:32:38;7.22;;;3.75;;
71127;SDS011;59249;59.736;30.568;2022-08-02T07:35:07;6.57;;;4.18;;
71127;SDS011;59249;59.736;30.568;2022-08-02T07:37:40;7.43;;;4.00;;
71127;SDS011;59249;59.736;30.568;2022-08-02T07:40:27;7.23;;;4.33;;
71127;SDS011;59249;59.736;30.568;2022-08-02T07:42:56;6.45;;;3.72;;
71127;SDS011;59249;59.736;30.568;2022-08-02T07:45:31;6.15;;;3.15;;
71127;SDS011;59249;59.736;30.568;2022-08-02T07:48:11;7.32;;;3.60;;
71127;SDS011;59249;59.736;30.568;2022-08-02T07:50:39;6.47;;;3.72;;
71127;SDS011;59249;59.736;30.568;2022-08-02T07:53:08;6.63;;;3.67;;
71127;SDS011;59249;59.736;30.568;2022-08-02T07:55:38;6.57;;;3.30;;
71127;SDS011;59249;59.736;30.568;2022-08-02T07:58:08;6.85;;;3.53;;
71127;SDS011;59249;59.736;30.568;2022-08-02T08:00:42;5.53;;;3.10;;
71127;SDS011;59249;59.736;30.568;2022-08-02T08:03:11;6.18;;;3.30;;
71127;SDS011;59249;59.736;30.568;2022-08-02T08:05:40;5.97;;;3.37;;
71127;SDS011;59249;59.736;30.568;2022-08-02T08:08:09;7.40;;;3.25;;
71127;SDS011;59249;59.736;30.568;2022-08-02T08:10:43;5.45;;;2.80;;
71127;SDS011;59249;59.736;30.568;2022-08-02T08:13:12;7.50;;;3.70;;
71127;SDS011;59249;59.736;30.568;2022-08-02T08:15:43;6.70;;;3.60;;
71127;SDS011;59249;59.736;30.568;2022-08-02T08:18:18;6.23;;;3.70;;
71127;SDS011;59249;59.736;30.568;2022-08-02T08:20:48;7.65;;;3.97;;
71127;SDS011;59249;59.736;30.568;2022-08-02T08:23:18;6.72;;;3.30;;
71127;SDS011;59249;59.736;30.568;2022-08-02T08:25:47;6.82;;;3.42;;
71127;SDS011;59249;59.736;30.568;2022-08-02T08:28:17;7.30;;;3.00;;
71127;SDS011;59249;59.736;30.568;2022-08-02T08:30:48;5.37;;;2.90;;
71127;SDS011;59249;59.736;30.568;2022-08-02T08:33:17;5.13;;;2.60;;
71127;SDS011;59249;59.736;30.568;2022-08-02T08:35:45;5.70;;;2.80;;
71127;SDS011;59249;59.736;30.568;2022-08-02T08:38:15;5.65;;;3.05;;
71127;SDS011;59249;59.736;30.568;2022-08-02T08:40:44;5.43;;;2.85;;
71127;SDS011;59249;59.736;30.568;2022-08-02T08:43:15;6.70;;;2.80;;
71127;SDS011;59249;59.736;30.568;2022-08-02T08:45:45;5.28;;;2.45;;
71127;SDS011;59249;59.736;30.568;2022-08-02T08:48:22;5.85;;;2.60;;
71127;SDS011;59249;59.736;30.568;2022-08-02T08:51:00;6.35;;;2.55;;
71127;SDS011;59249;59.736;30.568;2022-08-02T08:53:36;4.97;;;2.60;;
71127;SDS011;59249;59.736;30.568;2022-08-02T08:56:10;4.43;;;2.30;;
71127;SDS011;59249;59.736;30.568;2022-08-02T08:58:42;5.25;;;2.38;;
71127;SDS011;59249;59.736;30.568;2022-08-02T09:01:15;4.63;;;2.20;;
71127;SDS011;59249;59.736;30.568;2022-08-02T09:03:44;5.00;;;2.17;;
71127;SDS011;59249;59.736;30.568;2022-08-02T09:06:16;5.38;;;2.10;;
71127;SDS011;59249;59.736;30.568;2022-08-02T09:08:47;5.50;;;2.40;;
71127;SDS011;59249;59.736;30.568;2022-08-02T09:11:17;5.03;;;2.13;;
71127;SDS011;59249;59.736;30.568;2022-08-02T09:13:51;4.13;;;1.95;;
71127;SDS011;59249;59.736;30.568;2022-08-02T09:16:30;4.70;;;2.08;;
71127;SDS011;59249;59.736;30.568;2022-08-02T09:19:15;4.30;;;1.85;;
71127;SDS011;59249;59.736;30.568;2022-08-02T09:21:46;5.27;;;1.83;;
71127;SDS011;59249;59.736;30.568;2022-08-02T09:24:17;4.55;;;2.05;;
71127;SDS011;59249;59.736;30.568;2022-08-02T09:26:48;5.05;;;1.75;;
71127;SDS011;59249;59.736;30.568;2022-08-02T09:29:18;4.57;;;1.85;;
71127;SDS011;59249;59.736;30.568;2022-08-02T09:31:52;3.78;;;1.55;;
71127;SDS011;59249;59.736;30.568;2022-08-02T09:34:42;3.63;;;1.60;;
71127;SDS011;59249;59.736;30.568;2022-08-02T09:37:25;4.85;;;2.00;;
71127;SDS011;59249;59.736;30.568;2022-08-02T09:39:56;5.68;;;1.95;;
71127;SDS011;59249;59.736;30.568;2022-08-02T09:42:29;6.10;;;2.53;;
71127;SDS011;59249;59.736;30.568;2022-08-02T09:45:00;3.80;;;1.63;;
71127;SDS011;59249;59.736;30.568;2022-08-02T09:47:30;4.10;;;2.00;;
71127;SDS011;59249;59.736;30.568;2022-08-02T09:50:03;4.70;;;1.58;;
71127;SDS011;59249;59.736;30.568;2022-08-02T09:52:40;4.38;;;2.03;;
71127;SDS011;59249;59.736;30.568;2022-08-02T09:55:10;3.78;;;1.42;;
71127;SDS011;59249;59.736;30.568;2022-08-02T09:57:40;4.63;;;1.70;;
71127;SDS011;59249;59.736;30.568;2022-08-02T10:00:17;4.43;;;1.70;;
71127;SDS011;59249;59.736;30.568;2022-08-02T10:03:08;4.20;;;1.42;;
71127;SDS011;59249;59.736;30.568;2022-08-02T10:05:49;4.43;;;1.80;;
71127;SDS011;59249;59.736;30.568;2022-08-02T10:08:22;4.10;;;1.58;;
71127;SDS011;59249;59.736;30.568;2022-08-02T10:10:52;3.17;;;1.33;;
71127;SDS011;59249;59.736;30.568;2022-08-02T10:13:29;2.70;;;1.17;;
71127;SDS011;59249;59.736;30.568;2022-08-02T10:16:00;3.15;;;1.50;;
71127;SDS011;59249;59.736;30.568;2022-08-02T10:18:31;3.78;;;1.58;;
71127;SDS011;59249;59.736;30.568;2022-08-02T10:21:06;3.60;;;1.13;;
71127;SDS011;59249;59.736;30.568;2022-08-02T10:23:42;2.65;;;1.10;;
71127;SDS011;59249;59.736;30.568;2022-08-02T10:26:19;3.73;;;1.43;;
71127;SDS011;59249;59.736;30.568;2022-08-02T10:28:54;3.47;;;1.50;;
71127;SDS011;59249;59.736;30.568;2022-08-02T10:31:23;10.32;;;7.10;;
71127;SDS011;59249;59.736;30.568;2022-08-02T10:34:01;4.57;;;1.30;;
71127;SDS011;59249;59.736;30.568;2022-08-02T10:36:34;3.25;;;0.95;;
71127;SDS011;59249;59.736;30.568;2022-08-02T10:39:07;2.17;;;1.00;;
71127;SDS011;59249;59.736;30.568;2022-08-02T10:41:44;2.85;;;0.90;;
71127;SDS011;59249;59.736;30.568;2022-08-02T10:44:19;2.25;;;0.90;;
71127;SDS011;59249;59.736;30.568;2022-08-02T10:46:51;2.97;;;1.00;;
71127;SDS011;59249;59.736;30.568;2022-08-02T10:49:53;1.83;;;0.90;;
71127;SDS011;59249;59.736;30.568;2022-08-02T10:52:29;1.67;;;0.87;;
71127;SDS011;59249;59.736;30.568;2022-08-02T10:54:59;2.65;;;0.95;;
71127;SDS011;59249;59.736;30.568;2022-08-02T10:57:40;1.85;;;0.80;;
71127;SDS011;59249;59.736;30.568;2022-08-02T11:00:24;3.72;;;1.00;;
71127;SDS011;59249;59.736;30.568;2022-08-02T11:02:54;1.55;;;0.63;;
71127;SDS011;59249;59.736;30.568;2022-08-02T11:05:28;2.43;;;1.10;;
71127;SDS011;59249;59.736;30.568;2022-08-02T11:08:16;1.98;;;0.88;;
71127;SDS011;59249;59.736;30.568;2022-08-02T11:10:46;2.13;;;0.80;;
71127;SDS011;59249;59.736;30.568;2022-08-02T11:13:18;2.00;;;0.88;;
71127;SDS011;59249;59.736;30.568;2022-08-02T11:15:54;3.08;;;1.35;;
71127;SDS011;59249;59.736;30.568;2022-08-02T11:21:35;2.53;;;0.70;;
71127;SDS011;59249;59.736;30.568;2022-08-02T11:24:24;2.30;;;0.60;;
71127;SDS011;59249;59.736;30.568;2022-08-02T11:26:56;1.58;;;0.88;;
71127;SDS011;59249;59.736;30.568;2022-08-02T11:29:36;2.38;;;0.70;;
71127;SDS011;59249;59.736;30.568;2022-08-02T11:32:14;3.00;;;0.77;;
71127;SDS011;59249;59.736;30.568;2022-08-02T11:34:46;2.22;;;0.65;;
71127;SDS011;59249;59.736;30.568;2022-08-02T11:37:30;2.05;;;0.60;;
71127;SDS011;59249;59.736;30.568;2022-08-02T11:40:01;1.60;;;0.47;;
71127;SDS011;59249;59.736;30.568;2022-08-02T11:42:37;2.45;;;0.40;;
71127;SDS011;59249;59.736;30.568;2022-08-02T11:45:10;3.97;;;0.60;;
71127;SDS011;59249;59.736;30.568;2022-08-02T11:47:48;1.63;;;0.40;;
71127;SDS011;59249;59.736;30.568;2022-08-02T11:50:20;1.27;;;0.50;;
71127;SDS011;59249;59.736;30.568;2022-08-02T11:52:57;1.08;;;0.30;;
71127;SDS011;59249;59.736;30.568;2022-08-02T11:55:26;1.45;;;0.40;;
71127;SDS011;59249;59.736;30.568;2022-08-02T11:57:57;0.90;;;0.30;;
71127;SDS011;59249;59.736;30.568;2022-08-02T12:00:30;0.63;;;0.20;;
71127;SDS011;59249;59.736;30.568;2022-08-02T12:03:00;0.98;;;0.30;;
71127;SDS011;59249;59.736;30.568;2022-08-02T12:05:29;1.23;;;0.43;;
71127;SDS011;59249;59.736;30.568;2022-08-02T12:08:20;1.17;;;0.50;;
71127;SDS011;59249;59.736;30.568;2022-08-02T12:10:51;1.97;;;0.50;;
71127;SDS011;59249;59.736;30.568;2022-08-02T12:13:20;1.00;;;0.40;;
71127;SDS011;59249;59.736;30.568;2022-08-02T12:15:49;1.85;;;0.40;;
71127;SDS011;59249;59.736;30.568;2022-08-02T12:18:19;1.33;;;0.40;;
71127;SDS011;59249;59.736;30.568;2022-08-02T12:21:19;1.58;;;0.47;;
71127;SDS011;59249;59.736;30.568;2022-08-02T12:23:51;2.73;;;0.83;;
71127;SDS011;59249;59.736;30.568;2022-08-02T12:26:27;1.58;;;0.50;;
71127;SDS011;59249;59.736;30.568;2022-08-02T12:28:56;1.23;;;0.40;;
71127;SDS011;59249;59.736;30.568;2022-08-02T12:31:37;3.67;;;0.65;;
71127;SDS011;59249;59.736;30.568;2022-08-02T12:34:24;2.13;;;0.80;;
71127;SDS011;59249;59.736;30.568;2022-08-02T12:37:02;3.00;;;0.80;;
71127;SDS011;59249;59.736;30.568;2022-08-02T12:39:39;1.83;;;0.60;;
71127;SDS011;59249;59.736;30.568;2022-08-02T12:42:10;4.40;;;1.40;;
71127;SDS011;59249;59.736;30.568;2022-08-02T12:44:48;1.83;;;0.40;;
71127;SDS011;59249;59.736;30.568;2022-08-02T12:47:18;2.08;;;0.52;;
71127;SDS011;59249;59.736;30.568;2022-08-02T12:52:46;2.65;;;0.70;;
71127;SDS011;59249;59.736;30.568;2022-08-02T12:55:17;1.80;;;0.47;;
71127;SDS011;59249;59.736;30.568;2022-08-02T12:57:50;2.78;;;0.68;;
71127;SDS011;59249;59.736;30.568;2022-08-02T13:00:32;2.75;;;0.77;;
71127;SDS011;59249;59.736;30.568;2022-08-02T13:03:03;3.17;;;0.50;;
71127;SDS011;59249;59.736;30.568;2022-08-02T13:05:53;2.50;;;0.60;;
71127;SDS011;59249;59.736;30.568;2022-08-02T13:08:33;2.88;;;0.77;;
71127;SDS011;59249;59.736;30.568;2022-08-02T13:11:06;2.90;;;0.70;;
71127;SDS011;59249;59.736;30.568;2022-08-02T13:13:39;1.30;;;0.43;;
71127;SDS011;59249;59.736;30.568;2022-08-02T13:16:08;4.93;;;0.90;;
71127;SDS011;59249;59.736;30.568;2022-08-02T13:18:38;1.02;;;0.52;;
71127;SDS011;59249;59.736;30.568;2022-08-02T13:21:07;2.13;;;0.52;;
71127;SDS011;59249;59.736;30.568;2022-08-02T13:23:56;2.63;;;0.95;;
71127;SDS011;59249;59.736;30.568;2022-08-02T13:26:27;2.28;;;0.80;;
71127;SDS011;59249;59.736;30.568;2022-08-02T13:28:58;1.80;;;0.77;;
71127;SDS011;59249;59.736;30.568;2022-08-02T13:31:27;2.00;;;0.85;;
71127;SDS011;59249;59.736;30.568;2022-08-02T13:34:02;14.82;;;11.07;;
71127;SDS011;59249;59.736;30.568;2022-08-02T13:36:32;9.07;;;7.32;;
71127;SDS011;59249;59.736;30.568;2022-08-02T13:39:03;6.88;;;4.22;;
71127;SDS011;59249;59.736;30.568;2022-08-02T13:41:36;3.93;;;1.70;;
71127;SDS011;59249;59.736;30.568;2022-08-02T13:44:05;3.28;;;1.15;;
71127;SDS011;59249;59.736;30.568;2022-08-02T13:46:36;8.50;;;6.07;;
71127;SDS011;59249;59.736;30.568;2022-08-02T13:49:11;10.07;;;7.80;;
71127;SDS011;59249;59.736;30.568;2022-08-02T13:51:46;10.48;;;7.53;;
71127;SDS011;59249;59.736;30.568;2022-08-02T13:54:16;2.63;;;1.20;;
71127;SDS011;59249;59.736;30.568;2022-08-02T13:56:47;2.58;;;0.82;;
71127;SDS011;59249;59.736;30.568;2022-08-02T13:59:19;4.05;;;1.35;;
71127;SDS011;59249;59.736;30.568;2022-08-02T14:02:08;10.30;;;6.90;;
71127;SDS011;59249;59.736;30.568;2022-08-02T14:04:42;3.10;;;1.48;;
71127;SDS011;59249;59.736;30.568;2022-08-02T14:07:11;2.93;;;1.30;;
71127;SDS011;59249;59.736;30.568;2022-08-02T14:09:41;2.47;;;0.70;;
71127;SDS011;59249;59.736;30.568;2022-08-02T14:12:12;2.75;;;0.80;;
71127;SDS011;59249;59.736;30.568;2022-08-02T14:14:43;3.00;;;1.20;;
71127;SDS011;59249;59.736;30.568;2022-08-02T14:17:12;2.10;;;0.90;;
71127;SDS011;59249;59.736;30.568;2022-08-02T14:19:41;3.03;;;0.97;;
71127;SDS011;59249;59.736;30.568;2022-08-02T14:22:10;3.47;;;1.02;;
71127;SDS011;59249;59.736;30.568;2022-08-02T14:24:40;3.88;;;1.17;;
71127;SDS011;59249;59.736;30.568;2022-08-02T14:27:09;2.25;;;0.90;;
71127;SDS011;59249;59.736;30.568;2022-08-02T14:29:41;2.33;;;0.80;;
71127;SDS011;59249;59.736;30.568;2022-08-02T14:32:10;3.73;;;0.80;;
71127;SDS011;59249;59.736;30.568;2022-08-02T14:34:42;1.88;;;0.65;;
71127;SDS011;59249;59.736;30.568;2022-08-02T14:37:16;3.88;;;1.83;;
71127;SDS011;59249;59.736;30.568;2022-08-02T14:39:48;7.57;;;3.72;;
71127;SDS011;59249;59.736;30.568;2022-08-02T14:42:30;4.10;;;1.83;;
71127;SDS011;59249;59.736;30.568;2022-08-02T14:44:59;2.77;;;0.97;;
71127;SDS011;59249;59.736;30.568;2022-08-02T14:47:30;2.45;;;0.73;;
71127;SDS011;59249;59.736;30.568;2022-08-02T14:49:58;4.07;;;0.73;;
71127;SDS011;59249;59.736;30.568;2022-08-02T14:52:30;2.72;;;0.68;;
71127;SDS011;59249;59.736;30.568;2022-08-02T14:54:59;2.58;;;1.00;;
71127;SDS011;59249;59.736;30.568;2022-08-02T14:57:31;2.50;;;1.20;;
71127;SDS011;59249;59.736;30.568;2022-08-02T15:00:03;2.03;;;0.90;;
71127;SDS011;59249;59.736;30.568;2022-08-02T15:02:34;2.85;;;0.70;;
71127;SDS011;59249;59.736;30.568;2022-08-02T15:05:04;2.10;;;0.70;;
71127;SDS011;59249;59.736;30.568;2022-08-02T15:07:34;2.60;;;0.93;;
71127;SDS011;59249;59.736;30.568;2022-08-02T15:10:09;9.13;;;5.33;;
71127;SDS011;59249;59.736;30.568;2022-08-02T15:12:40;3.15;;;0.80;;